El Dorado, KS

4:20 AM CDT on August 28, 2014 (GMT -0500)
Towanda Township | Change Station
CLOSE
Current Station
Personal Weather Station
Location: Towanda, KS
Elevation: 1314 ft
Nearby Weather Stations

Elev 1314 ft 37.82 °N, 97.00 °W | Updated 27 seconds ago

Partly Cloudy
Partly Cloudy
77.2 °F
Feels Like 79 °F
N
5.8
Wind Variable Wind from SSW
Gusts 7.3 mph

Today
High -- | Low -- °F
--% Chance of Precip.
Yesterday
High -- | Low -- °F
Precip. -- in
6:54 AM 8:02 PM
Waxing Crescent, 7% visible
Pressure 29.91 in
Visibility 10.0 miles
Clouds Clear
Heat Index 79 °F
Dew Point 67 °F
Humidity 70%
Rainfall 0.00 in
Snow Depth Not available.
UV 0 out of 12
Pollen 11.10 out of 12
Air Quality Not available.
Flu Activity Not available.
METAR KAAO 280854Z AUTO 18008KT 10SM CLR 26/18 A2996 RMK AO2 SLP127 T02560183 56010

More Conditions Fewer Conditions

Pressure 29.91 in
Visibility 10.0 miles
Clouds Clear
Heat Index 79 °F
Dew Point 67 °F
Humidity 70%
Rainfall 0.00 in
Snow Depth Not available.
UV 0 out of 12
Pollen 11.10 out of 12
Air Quality Not available.
Flu Activity Not available.
METAR KAAO 280854Z AUTO 18008KT 10SM CLR 26/18 A2996 RMK AO2 SLP127 T02560183 56010

More Conditions Fewer Conditions

10-Day Weather Forecast

Almanac

Astronomy

Aug. 28, 2014 Rise Set
Actual Time 6:54 AM CDT 8:02 PM CDT
Civil Twilight 6:26 AM CDT 8:29 PM CDT
Nautical Twilight 5:54 AM CDT 9:01 PM CDT
Astronomical Twilight 5:21 AM CDT 9:35 PM CDT
Moon 9:43 AM CDT 9:31 PM CDT
Length of Visible Light 14h 02m
Length of Day
13h 08m
Tomorrow will be 2m 18s shorter.
Waxing Crescent, 7% of the Moon is Illuminated
Today
Waxing Crescent
Sep 2
First Quarter
Sep 8
Full
Sep 15
Last Quarter
Sep 24
New

Today's Extremes

State Highs State Lows

Community

WunderPhotos

Upload Photos

1,747,918 photos uploaded!

Nearby

Snow Depth

Station Depth Elevation
No new snow has been reported.

Earthquake Activity

City Distance Mag. Time & Date
Stillwater, Oklahoma 120 miles 3.1 10:44 AM CDT
2014-08-27
Anthony, Kansas 76 miles 2.8 10:11 AM CDT
2014-08-27
Perry, Oklahoma 117 miles 2.5 8:07 AM CDT
2014-08-26
Medford, Oklahoma 86 miles 2.6 2:59 AM CDT
2014-08-26
Minimum magnitude displayed is 2.5.

Coastal Water Temperatures

Place Temperature
No Stations Reporting

Nearby Weather Stations